createdAt,value
2019-05-12T00:02:03.342Z,101047.23
2019-05-12T00:04:34.661Z,101035.91
2019-05-12T00:07:05.832Z,101038.05
2019-05-12T00:09:38.807Z,101042.79
2019-05-12T00:12:09.916Z,101045.72
2019-05-12T00:14:41.258Z,101046.09
2019-05-12T00:17:12.592Z,101051.63
2019-05-12T00:19:43.547Z,101047.75
2019-05-12T00:22:18.066Z,101041.97
2019-05-12T00:24:49.626Z,101043.11
2019-05-12T00:27:23.502Z,101052.19
2019-05-12T00:29:57.799Z,101050.88
2019-05-12T00:32:29.640Z,101056.55
2019-05-12T00:35:01.202Z,101051.74
2019-05-12T00:37:32.328Z,101055.11
2019-05-12T00:40:03.983Z,101052.49
2019-05-12T00:42:35.096Z,101060.56
2019-05-12T00:45:08.378Z,101053.08
2019-05-12T00:47:40.699Z,101057.17
2019-05-12T00:50:11.974Z,101055.52
2019-05-12T00:52:43.286Z,101059.61
2019-05-12T00:55:14.735Z,101064.64
2019-05-12T00:57:45.837Z,101067.59
2019-05-12T01:00:17.890Z,101064.55
2019-05-12T01:02:49.009Z,101071.08
2019-05-12T01:05:20.133Z,101074.81
2019-05-12T01:07:51.329Z,101077.83
2019-05-12T01:10:23.423Z,101081.41
2019-05-12T01:12:54.738Z,101079.73
2019-05-12T01:15:28.607Z,101083.97
2019-05-12T01:18:03.218Z,101087.37
2019-05-12T01:20:35.519Z,101087.03
2019-05-12T01:23:08.927Z,101083.88
2019-05-12T01:25:41.298Z,101088.39
2019-05-12T01:28:13.698Z,101092.19
2019-05-12T01:30:47.925Z,101097.63
2019-05-12T01:33:20.363Z,101092.23
2019-05-12T01:35:51.822Z,101102.16
2019-05-12T01:38:23.340Z,101102.52
2019-05-12T01:40:55.284Z,101106.73
2019-05-12T01:43:27.758Z,101110.75
2019-05-12T01:46:00.054Z,101119.73
2019-05-12T01:48:32.179Z,101124.07
2019-05-12T01:51:03.832Z,101125.63
2019-05-12T01:53:37.628Z,101134.55
2019-05-12T01:56:08.099Z,101132.50
2019-05-12T01:58:39.277Z,101134.74
2019-05-12T02:01:12.182Z,101134.31
2019-05-12T02:03:43.110Z,101132.84
2019-05-12T02:06:14.667Z,101134.55
2019-05-12T02:08:47.854Z,101139.23
2019-05-12T02:11:20.792Z,101144.83
2019-05-12T02:13:52.506Z,101141.47
2019-05-12T02:16:23.998Z,101144.26
2019-05-12T02:18:55.136Z,101148.03
2019-05-12T02:21:28.056Z,101150.22
2019-05-12T02:23:59.344Z,101152.22
2019-05-12T02:26:30.354Z,101162.02
2019-05-12T02:29:01.987Z,101157.12
2019-05-12T02:31:33.462Z,101162.59
2019-05-12T02:34:05.706Z,101161.22
2019-05-12T02:36:36.657Z,101173.38
2019-05-12T02:39:08.784Z,101176.69
2019-05-12T02:41:40.257Z,101179.57
2019-05-12T02:44:14.603Z,101181.34
2019-05-12T02:46:44.747Z,101183.73
2019-05-12T02:49:15.990Z,101181.06
2019-05-12T02:51:48.582Z,101188.44
2019-05-12T02:54:24.987Z,101189.81
2019-05-12T02:56:55.500Z,101190.63
2019-05-12T02:59:29.749Z,101200.39
2019-05-12T03:02:05.184Z,101208.97
2019-05-12T03:04:36.442Z,101204.98
2019-05-12T03:07:07.691Z,101212.85
2019-05-12T03:09:39.935Z,101215.44
2019-05-12T03:12:14.276Z,101219.33
2019-05-12T03:14:44.926Z,101236.66
2019-05-12T03:17:16.060Z,101238.97
2019-05-12T03:19:47.554Z,101241.67
2019-05-12T03:22:20.159Z,101240.73
2019-05-12T03:25:07.749Z,101234.98
2019-05-12T03:27:25.626Z,101246.98
2019-05-12T03:29:57.054Z,101241.41
2019-05-12T03:32:28.870Z,101252.73
2019-05-12T03:35:00.319Z,101258.05
2019-05-12T03:37:31.596Z,101262.17
2019-05-12T03:40:05.418Z,101268.34
2019-05-12T03:42:36.058Z,101271.34
2019-05-12T03:45:07.539Z,101273.41
2019-05-12T03:47:38.867Z,101279.20
2019-05-12T03:50:10.580Z,101289.54
2019-05-12T03:52:44.950Z,101275.47
2019-05-12T03:55:30.203Z,101281.27
2019-05-12T03:57:49.069Z,101286.11
2019-05-12T04:00:24.492Z,101286.33
2019-05-12T04:02:55.524Z,101294.23
2019-05-12T04:05:27.208Z,101299.91
2019-05-12T04:07:58.819Z,101303.08
2019-05-12T04:10:30.743Z,101311.96
2019-05-12T04:13:04.492Z,101321.87
2019-05-12T04:15:35.894Z,101321.87
2019-05-12T04:18:07.268Z,101326.66
2019-05-12T04:20:38.779Z,101330.41
2019-05-12T04:23:10.219Z,101330.94
2019-05-12T04:25:54.825Z,101336.31
2019-05-12T04:28:15.254Z,101347.70
2019-05-12T04:30:46.676Z,101357.48
2019-05-12T04:33:17.931Z,101357.04
2019-05-12T04:35:49.656Z,101362.58
2019-05-12T04:38:20.661Z,101363.47
2019-05-12T04:40:55.073Z,101368.70
2019-05-12T04:43:25.749Z,101367.72
2019-05-12T04:45:57.599Z,101372.00
2019-05-12T04:48:28.839Z,101375.98
2019-05-12T04:51:01.385Z,101376.20
2019-05-12T04:53:35.246Z,101381.39
2019-05-12T04:56:15.636Z,101383.66
2019-05-12T04:58:39.696Z,101394.97
2019-05-12T05:01:10.981Z,101394.20
2019-05-12T05:03:44.297Z,101405.11
2019-05-12T05:06:15.390Z,101402.60
2019-05-12T05:08:46.469Z,101409.97
2019-05-12T05:11:17.698Z,101409.70
2019-05-12T05:13:49.038Z,101418.20
2019-05-12T05:16:19.796Z,101416.01
2019-05-12T05:18:51.147Z,101425.62
2019-05-12T05:21:24.032Z,101428.06
2019-05-12T05:23:55.746Z,101430.03
2019-05-12T05:26:28.295Z,101433.84
2019-05-12T05:28:59.395Z,101443.62
2019-05-12T05:31:30.592Z,101441.92
2019-05-12T05:34:04.839Z,101447.87
2019-05-12T05:36:36.589Z,101452.95
2019-05-12T05:39:08.877Z,101459.26
2019-05-12T05:41:46.611Z,101469.05
2019-05-12T05:44:13.955Z,101464.67
2019-05-12T05:46:49.998Z,101470.87
2019-05-12T05:49:19.500Z,101469.59
2019-05-12T05:51:55.115Z,101476.25
2019-05-12T05:54:31.456Z,101480.37
2019-05-12T05:56:59.696Z,101481.66
2019-05-12T05:59:31.691Z,101481.00
2019-05-12T06:02:04.711Z,101491.14
2019-05-12T06:04:39.256Z,101489.66
2019-05-12T06:07:08.345Z,101495.38
2019-05-12T06:09:39.546Z,101497.50
2019-05-12T06:12:10.994Z,101499.19
2019-05-12T06:14:46.739Z,101509.92
2019-05-12T06:17:15.500Z,101516.00
2019-05-12T06:19:46.631Z,101516.59
2019-05-12T06:22:18.571Z,101518.64
2019-05-12T06:24:56.967Z,101520.89
2019-05-12T06:27:24.339Z,101524.11
2019-05-12T06:30:00.822Z,101521.61
2019-05-12T06:32:29.150Z,101525.91
2019-05-12T06:35:03.898Z,101521.93
2019-05-12T06:37:33.930Z,101527.25
2019-05-12T06:40:06.949Z,101532.44
2019-05-12T06:42:38.238Z,101538.61
2019-05-12T06:45:10.191Z,101539.49
2019-05-12T06:47:45.300Z,101546.88
2019-05-12T06:50:14.831Z,101557.88
2019-05-12T06:52:49.009Z,101566.24
2019-05-12T06:55:19.437Z,101570.09
2019-05-12T06:57:50.887Z,101584.62
2019-05-12T07:00:30.827Z,101575.11
2019-05-12T07:02:55.513Z,101576.27
2019-05-12T07:05:28.090Z,101588.34
2019-05-12T07:08:00.909Z,101592.69
2019-05-12T07:10:42.622Z,101594.78
2019-05-12T07:13:06.125Z,101586.16
2019-05-12T07:15:40.271Z,101589.16
2019-05-12T07:18:14.091Z,101590.99
2019-05-12T07:20:44.454Z,101591.89
2019-05-12T07:23:19.583Z,101598.88
2019-05-12T07:25:49.025Z,101602.09
2019-05-12T07:28:20.591Z,101605.81
2019-05-12T07:30:54.345Z,101606.53
2019-05-12T07:33:25.991Z,101616.19
2019-05-12T07:36:01.345Z,101612.02
2019-05-12T07:38:34.385Z,101623.17
2019-05-12T07:41:10.538Z,101625.99
2019-05-12T07:43:40.626Z,101628.31
2019-05-12T07:46:13.444Z,101629.34
2019-05-12T07:48:48.955Z,101635.88
2019-05-12T07:51:17.700Z,101630.81
2019-05-12T07:53:57.231Z,101635.12
2019-05-12T07:56:25.923Z,101636.38
2019-05-12T07:58:57.242Z,101645.55
2019-05-12T08:01:28.110Z,101656.34
2019-05-12T08:04:01.424Z,101657.23
2019-05-12T08:06:41.305Z,101663.45
2019-05-12T08:09:07.997Z,101671.81
2019-05-12T08:11:39.970Z,101675.03
2019-05-12T08:14:13.856Z,101677.45
2019-05-12T08:16:43.869Z,101677.28
2019-05-12T08:19:24.020Z,101685.06
2019-05-12T08:21:49.141Z,101682.16
2019-05-12T08:24:20.501Z,101683.69
2019-05-12T08:26:59.746Z,101688.44
2019-05-12T08:29:24.580Z,101688.53
2019-05-12T08:31:55.901Z,101692.59
2019-05-12T08:34:27.121Z,101694.55
2019-05-12T08:36:58.243Z,101705.08
2019-05-12T08:39:29.303Z,101702.70
2019-05-12T08:42:00.659Z,101709.42
2019-05-12T08:44:38.471Z,101714.67
2019-05-12T08:47:04.422Z,101720.66
2019-05-12T08:49:49.733Z,101721.34
2019-05-12T08:52:08.023Z,101723.21
2019-05-12T08:54:39.573Z,101722.67
2019-05-12T08:57:14.184Z,101731.19
2019-05-12T08:59:44.265Z,101738.70
2019-05-12T09:02:15.443Z,101744.89
2019-05-12T09:04:51.253Z,101749.38
2019-05-12T09:07:21.459Z,101754.56
2019-05-12T09:09:53.412Z,101764.20
2019-05-12T09:12:25.121Z,101759.91
2019-05-12T09:14:56.071Z,101764.91
2019-05-12T09:17:26.761Z,101767.70
2019-05-12T09:20:03.641Z,101775.45
2019-05-12T09:22:31.031Z,101786.06
2019-05-12T09:25:04.281Z,101779.92
2019-05-12T09:27:39.548Z,101789.20
2019-05-12T09:30:24.203Z,101792.02
2019-05-12T09:32:56.108Z,101799.77
2019-05-12T09:35:33.570Z,101805.86
2019-05-12T09:38:03.669Z,101809.45
2019-05-12T09:40:43.978Z,101810.88
2019-05-12T09:43:15.839Z,101809.80
2019-05-12T09:45:51.468Z,101821.22
2019-05-12T09:48:19.317Z,101825.27
2019-05-12T09:50:51.545Z,101828.94
2019-05-12T09:53:23.680Z,101835.03
2019-05-12T09:55:54.605Z,101832.93
2019-05-12T09:58:36.382Z,101832.70
2019-05-12T10:01:09.641Z,101836.61
2019-05-12T10:03:44.664Z,101841.53
2019-05-12T10:06:18.051Z,101845.16
2019-05-12T10:08:54.921Z,101844.80
2019-05-12T10:11:29.411Z,101850.05
2019-05-12T10:14:05.377Z,101851.98
2019-05-12T10:16:33.436Z,101850.41
2019-05-12T10:19:04.268Z,101850.72
2019-05-12T10:21:36.054Z,101852.88
2019-05-12T10:24:07.384Z,101859.64
2019-05-12T10:26:41.259Z,101864.34
2019-05-12T10:29:19.632Z,101863.01
2019-05-12T10:31:44.590Z,101862.64
2019-05-12T10:34:17.145Z,101871.03
2019-05-12T10:36:49.342Z,101876.36
2019-05-12T10:39:21.204Z,101880.08
2019-05-12T10:41:53.954Z,101877.48
2019-05-12T10:44:30.229Z,101881.95
2019-05-12T10:46:58.685Z,101882.59
2019-05-12T10:49:29.864Z,101883.36
2019-05-12T10:52:00.821Z,101882.23
2019-05-12T10:54:34.091Z,101881.83
2019-05-12T10:57:05.085Z,101894.96
2019-05-12T10:59:38.853Z,101893.84
2019-05-12T11:02:09.258Z,101900.84
2019-05-12T11:04:41.262Z,101904.66
2019-05-12T11:07:13.592Z,101918.05
2019-05-12T11:09:45.261Z,101918.19
2019-05-12T11:12:19.109Z,101920.43
2019-05-12T11:14:48.900Z,101921.73
2019-05-12T11:17:19.582Z,101924.16
2019-05-12T11:19:53.644Z,101919.62
2019-05-12T11:22:23.111Z,101933.08
2019-05-12T11:24:55.853Z,101925.14
2019-05-12T11:27:26.901Z,101931.69
2019-05-12T11:29:57.986Z,101937.12
2019-05-12T11:32:34.029Z,101942.89
2019-05-12T11:35:03.955Z,101943.66
2019-05-12T11:37:34.026Z,101950.96
2019-05-12T11:40:06.323Z,101951.73
2019-05-12T11:42:37.256Z,101956.20
2019-05-12T11:45:08.843Z,101956.46
2019-05-12T11:47:40.052Z,101965.79
2019-05-12T11:50:10.279Z,101959.37
2019-05-12T11:52:41.153Z,101966.84
2019-05-12T11:55:13.353Z,101969.52
2019-05-12T11:57:43.769Z,101974.47
2019-05-12T12:00:15.375Z,101970.44
2019-05-12T12:02:45.485Z,101973.75
2019-05-12T12:05:16.156Z,101987.27
2019-05-12T12:07:50.768Z,101979.02
2019-05-12T12:10:18.321Z,101980.32
2019-05-12T12:12:49.430Z,101982.97
2019-05-12T12:15:26.345Z,101988.20
2019-05-12T12:17:53.476Z,101987.28
2019-05-12T12:20:24.379Z,101995.73
2019-05-12T12:22:54.732Z,101989.25
2019-05-12T12:25:26.290Z,101993.70
2019-05-12T12:27:56.121Z,102006.73
2019-05-12T12:30:26.198Z,102007.33
2019-05-12T12:33:00.279Z,102009.22
2019-05-12T12:35:29.337Z,102015.52
2019-05-12T12:37:59.630Z,102012.76
2019-05-12T12:40:29.722Z,102009.66
2019-05-12T12:42:59.584Z,102010.18
2019-05-12T12:45:40.591Z,102017.12
2019-05-12T12:48:19.269Z,102014.84
2019-05-12T12:50:45.711Z,102020.95
2019-05-12T12:53:15.736Z,102022.66
2019-05-12T12:55:45.801Z,102027.56
2019-05-12T12:58:21.055Z,102031.27
2019-05-12T13:00:53.647Z,102031.69
2019-05-12T13:03:25.751Z,102040.31
2019-05-12T13:05:54.276Z,102044.08
2019-05-12T13:08:24.951Z,102052.88
2019-05-12T13:10:56.365Z,102058.94
2019-05-12T13:13:26.836Z,102070.01
2019-05-12T13:15:57.759Z,102071.57
2019-05-12T13:18:33.182Z,102081.00
2019-05-12T13:21:03.220Z,102081.41
2019-05-12T13:23:40.006Z,102084.77
2019-05-12T13:26:05.998Z,102084.19
2019-05-12T13:28:36.774Z,102094.16
2019-05-12T13:31:15.280Z,102092.67
2019-05-12T13:33:44.259Z,102096.41
2019-05-12T13:36:16.450Z,102096.58
2019-05-12T13:38:46.975Z,102100.40
2019-05-12T13:41:20.059Z,102105.69
2019-05-12T13:43:56.228Z,102113.23
2019-05-12T13:46:25.133Z,102119.70
2019-05-12T13:48:59.687Z,102116.20
2019-05-12T13:51:28.019Z,102114.03
2019-05-12T13:53:58.637Z,102113.17
2019-05-12T13:56:33.101Z,102118.05
2019-05-12T13:59:01.254Z,102118.33
2019-05-12T14:01:40.008Z,102118.33
2019-05-12T14:04:06.699Z,102122.45
2019-05-12T14:06:37.951Z,102114.62
2019-05-12T14:09:10.119Z,102114.83
2019-05-12T14:11:43.735Z,102109.67
2019-05-12T14:14:15.357Z,102110.16
2019-05-12T14:16:57.375Z,102106.97
2019-05-12T14:19:23.320Z,102108.52
2019-05-12T14:21:54.267Z,102108.92
2019-05-12T14:24:24.757Z,102106.52
2019-05-12T14:26:55.204Z,102108.30
2019-05-12T14:29:30.459Z,102112.44
2019-05-12T14:32:02.389Z,102107.63
2019-05-12T14:34:33.961Z,102108.25
2019-05-12T14:37:10.231Z,102119.38
2019-05-12T14:39:46.210Z,102115.67
2019-05-12T14:42:14.722Z,102124.31
2019-05-12T14:44:49.649Z,102127.83
2019-05-12T14:47:27.963Z,102136.54
2019-05-12T14:49:54.286Z,102142.78
2019-05-12T14:52:27.400Z,102134.23
2019-05-12T14:54:58.790Z,102141.31
2019-05-12T14:57:37.414Z,102141.41
2019-05-12T15:00:11.365Z,102141.70
2019-05-12T15:02:43.829Z,102138.60
2019-05-12T15:05:15.951Z,102135.78
2019-05-12T15:07:53.758Z,102141.80
2019-05-12T15:10:23.437Z,102142.69
2019-05-12T15:12:54.902Z,102136.94
2019-05-12T15:15:28.117Z,102143.89
2019-05-12T15:18:03.124Z,102144.09
2019-05-12T15:20:33.213Z,102136.16
2019-05-12T15:23:06.169Z,102124.35
2019-05-12T15:25:38.540Z,102136.72
2019-05-12T15:28:10.397Z,102143.05
2019-05-12T15:30:43.610Z,102143.73
2019-05-12T15:33:15.732Z,102145.89
2019-05-12T15:35:48.129Z,102153.16
2019-05-12T15:38:20.426Z,102151.03
2019-05-12T15:40:53.779Z,102157.37
2019-05-12T15:43:25.679Z,102158.41
2019-05-12T15:45:59.706Z,102169.96
2019-05-12T15:48:34.214Z,102169.55
2019-05-12T15:51:08.581Z,102169.15
2019-05-12T15:53:39.189Z,102173.80
2019-05-12T15:56:21.039Z,102174.91
2019-05-12T15:58:47.114Z,102172.70
2019-05-12T16:01:20.010Z,102178.91
2019-05-12T16:03:54.322Z,102174.98
2019-05-12T16:06:26.174Z,102171.07
2019-05-12T16:08:59.142Z,102171.03
2019-05-12T16:11:30.833Z,102172.45
2019-05-12T16:14:04.093Z,102176.25
2019-05-12T16:16:42.875Z,102177.36
2019-05-12T16:19:15.475Z,102177.06
2019-05-12T16:21:46.740Z,102181.80
2019-05-12T16:24:18.626Z,102177.36
2019-05-12T16:26:51.958Z,102183.59
2019-05-12T16:29:27.299Z,102184.41
2019-05-12T16:31:58.438Z,102179.19
2019-05-12T16:34:29.651Z,102184.98
2019-05-12T16:37:01.002Z,102187.92
2019-05-12T16:39:37.175Z,102186.91
2019-05-12T16:42:10.421Z,102188.82
2019-05-12T16:44:38.579Z,102190.82
2019-05-12T16:47:27.269Z,102191.02
2019-05-12T16:50:15.656Z,102199.47
2019-05-12T16:52:41.898Z,102202.16
2019-05-12T16:55:13.170Z,102209.28
2019-05-12T16:57:51.655Z,102205.30
2019-05-12T17:00:17.384Z,102201.73
2019-05-12T17:02:53.695Z,102207.36
2019-05-12T17:05:24.012Z,102208.58
2019-05-12T17:07:55.875Z,102214.09
2019-05-12T17:10:28.765Z,102214.28
2019-05-12T17:13:00.020Z,102212.98
2019-05-12T17:15:31.242Z,102218.20
2019-05-12T17:18:04.331Z,102217.72
2019-05-12T17:20:45.862Z,102228.17
2019-05-12T17:23:13.842Z,102225.55
2019-05-12T17:25:45.395Z,102234.48
2019-05-12T17:28:16.467Z,102232.08
2019-05-12T17:30:47.572Z,102239.91
2019-05-12T17:33:22.934Z,102238.19
2019-05-12T17:35:53.319Z,102242.70
2019-05-12T17:38:26.373Z,102242.70
2019-05-12T17:41:00.655Z,102249.63
2019-05-12T17:43:33.689Z,102253.41
2019-05-12T17:46:04.555Z,102263.20
2019-05-12T17:48:42.411Z,102264.67
2019-05-12T17:51:10.464Z,102268.61
2019-05-12T17:53:43.419Z,102270.84
2019-05-12T17:56:16.051Z,102272.07
2019-05-12T17:58:47.713Z,102277.81
2019-05-12T18:01:23.162Z,102274.58
2019-05-12T18:03:53.558Z,102277.63
2019-05-12T18:06:26.916Z,102276.97
2019-05-12T18:09:00.281Z,102285.73
2019-05-12T18:11:33.963Z,102292.14
2019-05-12T18:14:07.255Z,102292.77
2019-05-12T18:16:38.586Z,102304.20
2019-05-12T18:19:17.673Z,102303.88
2019-05-12T18:21:45.138Z,102305.28
2019-05-12T18:24:17.286Z,102312.35
2019-05-12T18:26:56.638Z,102319.33
2019-05-12T18:29:26.621Z,102327.31
2019-05-12T18:31:57.998Z,102325.78
2019-05-12T18:34:35.376Z,102328.56
2019-05-12T18:37:07.047Z,102331.23
2019-05-12T18:39:40.052Z,102332.77
2019-05-12T18:42:13.944Z,102340.02
2019-05-12T18:44:44.995Z,102340.59
2019-05-12T18:47:17.210Z,102339.72
2019-05-12T18:49:50.240Z,102340.86
2019-05-12T18:52:23.606Z,102343.56
2019-05-12T18:54:57.268Z,102349.07
2019-05-12T18:57:28.109Z,102352.34
2019-05-12T19:00:04.051Z,102350.63
2019-05-12T19:02:33.502Z,102356.53
2019-05-12T19:05:06.408Z,102363.53
2019-05-12T19:07:40.012Z,102361.16
2019-05-12T19:10:09.912Z,102362.81
2019-05-12T19:12:44.260Z,102365.49
2019-05-12T19:15:37.910Z,102368.63
2019-05-12T19:18:09.486Z,102371.66
2019-05-12T19:20:44.034Z,102373.67
2019-05-12T19:23:16.389Z,102372.45
2019-05-12T19:25:47.668Z,102382.07
2019-05-12T19:28:18.589Z,102381.17
2019-05-12T19:30:50.445Z,102384.43
2019-05-12T19:33:22.905Z,102386.09
2019-05-12T19:35:59.801Z,102387.80
2019-05-12T19:38:28.155Z,102395.74
2019-05-12T19:41:04.468Z,102393.55
2019-05-12T19:43:39.171Z,102402.76
2019-05-12T19:46:08.258Z,102399.66
2019-05-12T19:48:49.940Z,102403.06
2019-05-12T19:51:25.559Z,102407.76
2019-05-12T19:53:53.671Z,102404.77
2019-05-12T19:56:24.600Z,102414.95
2019-05-12T19:58:55.905Z,102421.27
2019-05-12T20:01:32.982Z,102423.97
2019-05-12T20:03:59.340Z,102429.06
2019-05-12T20:06:30.648Z,102439.62
2019-05-12T20:09:06.863Z,102439.66
2019-05-12T20:11:33.999Z,102441.64
2019-05-12T20:14:04.710Z,102449.05
2019-05-12T20:16:35.461Z,102451.14
2019-05-12T20:19:06.923Z,102454.89
2019-05-12T20:21:48.379Z,102456.84
2019-05-12T20:24:29.319Z,102461.31
2019-05-12T20:27:04.096Z,102464.84
2019-05-12T20:29:43.411Z,102475.86
2019-05-12T20:32:29.757Z,102477.43
2019-05-12T20:35:08.677Z,102478.61
2019-05-12T20:37:52.974Z,102483.42
2019-05-12T20:40:20.324Z,102488.49
2019-05-12T20:43:07.377Z,102481.22
2019-05-12T20:45:26.065Z,102481.33
2019-05-12T20:47:57.851Z,102481.86
2019-05-12T20:50:38.666Z,102479.12
2019-05-12T20:53:03.842Z,102476.38
2019-05-12T20:55:41.196Z,102486.00
2019-05-12T20:58:08.567Z,102487.16
2019-05-12T21:00:45.418Z,102486.50
2019-05-12T21:03:27.243Z,102483.15
2019-05-12T21:06:06.719Z,102486.14
2019-05-12T21:08:37.880Z,102477.81
2019-05-12T21:11:09.398Z,102493.52
2019-05-12T21:13:43.794Z,102491.20
2019-05-12T21:16:19.530Z,102490.30
2019-05-12T21:18:55.845Z,102492.89
2019-05-12T21:21:27.652Z,102492.39
2019-05-12T21:23:59.127Z,102488.09
2019-05-12T21:26:28.452Z,102496.94
2019-05-12T21:29:01.479Z,102498.11
2019-05-12T21:31:33.758Z,102499.28
2019-05-12T21:34:06.840Z,102503.29
2019-05-12T21:36:38.358Z,102503.58
2019-05-12T21:39:10.562Z,102507.21
2019-05-12T21:41:47.390Z,102510.84
2019-05-12T21:44:17.577Z,102506.81
2019-05-12T21:46:58.942Z,102507.08
2019-05-12T21:49:25.134Z,102508.23
2019-05-12T21:52:02.969Z,102509.91
2019-05-12T21:54:36.182Z,102503.81
2019-05-12T21:57:04.434Z,102507.98
2019-05-12T21:59:39.513Z,102507.32
2019-05-12T22:02:09.863Z,102510.95
2019-05-12T22:04:42.847Z,102509.68
2019-05-12T22:07:15.248Z,102513.44
2019-05-12T22:09:47.235Z,102511.62
2019-05-12T22:12:23.490Z,102510.83
2019-05-12T22:14:54.278Z,102509.39
2019-05-12T22:17:28.346Z,102516.43
2019-05-12T22:20:00.052Z,102510.05
2019-05-12T22:22:33.218Z,102514.59
2019-05-12T22:25:09.724Z,102508.61
2019-05-12T22:27:39.761Z,102514.86
2019-05-12T22:30:13.347Z,102518.88
2019-05-12T22:32:44.255Z,102514.71
2019-05-12T22:35:21.775Z,102513.56
2019-05-12T22:37:48.860Z,102508.50
2019-05-12T22:40:23.458Z,102506.80
2019-05-12T22:42:59.286Z,102504.20
2019-05-12T22:45:27.412Z,102507.84
2019-05-12T22:47:59.240Z,102505.13
2019-05-12T22:50:33.334Z,102506.02
2019-05-12T22:53:04.725Z,102506.42
2019-05-12T22:55:36.527Z,102505.65
2019-05-12T22:58:10.735Z,102507.21
2019-05-12T23:00:41.145Z,102499.42
2019-05-12T23:03:14.948Z,102502.66
2019-05-12T23:05:50.864Z,102505.52
2019-05-12T23:08:18.946Z,102506.41
2019-05-12T23:10:53.276Z,102502.77
2019-05-12T23:13:24.341Z,102502.66
2019-05-12T23:15:56.008Z,102504.87
2019-05-12T23:18:30.719Z,102508.63
2019-05-12T23:21:03.934Z,102512.54
2019-05-12T23:23:34.096Z,102509.55
2019-05-12T23:26:05.377Z,102512.52
2019-05-12T23:28:40.522Z,102511.36
2019-05-12T23:31:09.856Z,102510.31
2019-05-12T23:33:44.154Z,102512.54
2019-05-12T23:36:17.809Z,102509.80
2019-05-12T23:38:51.950Z,102506.16
2019-05-12T23:41:20.239Z,102509.14
2019-05-12T23:43:53.649Z,102508.63
2019-05-12T23:46:24.965Z,102503.70
2019-05-12T23:48:57.547Z,102505.90
2019-05-12T23:51:29.095Z,102512.38
2019-05-12T23:54:00.776Z,102511.30
2019-05-12T23:56:33.703Z,102505.34
2019-05-12T23:59:05.577Z,102505.08
